Home > Products > Valid Products > TAF

000
FTPQ31 PGUM 241100
TAFPQ
TAF
PGUM 241120Z 2412/2518 07008KT P6SM VCSH SCT020 BKN050
     FM242230 07014KT P6SM VCSH SCT020 SCT040=



000
FTPQ31 PGUM 241100
TAFPQ
TAF
PGUM 241120Z 2412/2518 07008KT P6SM VCSH SCT020 BKN050
     FM242230 07014KT P6SM VCSH SCT020 SCT040=



000
FTPQ31 PGUM 240500
TAFPQ
TAF
PGUM 240520Z 2406/2512 05011KT P6SM VCSH SCT022 SCT050=



000
FTPQ31 PGUM 240500
TAFPQ
TAF
PGUM 240520Z 2406/2512 05011KT P6SM VCSH SCT022 SCT050=



000
FTPQ31 PGUM 232300
TAFPQ
TAF
PGUM 232320Z 2400/2506 08012KT P6SM VCSH SCT020=



000
FTPQ31 PGUM 232300
TAFPQ
TAF
PGUM 232320Z 2400/2506 08012KT P6SM VCSH SCT020=



000
FTPQ31 PGUM 231700
TAFPQ
TAF
PGUM 231720Z 2318/2424 07009KT P6SM VCSH FEW025 SCT050
     FM240000 07011G20KT P6SM FEW025 SCT050
     FM240800 07010KT P6SM VCSH FEW025 SCT050=



000
FTPQ31 PGUM 231700
TAFPQ
TAF
PGUM 231720Z 2318/2424 07009KT P6SM VCSH FEW025 SCT050
     FM240000 07011G20KT P6SM FEW025 SCT050
     FM240800 07010KT P6SM VCSH FEW025 SCT050=



000
FTPQ31 PGUM 231100
TAFPQ
TAF
PGUM 231126Z 2312/2418 07010KT P6SM FEW025 FEW040
     FM232230 06015KT P6SM SCT025 SCT040=



000
FTPQ31 PGUM 230500
TAFPQ
TAF
PGUM 230524Z 2306/2412 08011G19KT P6SM FEW022 FEW030
     FM230900 07007KT P6SM VCSH FEW020=



000
FTPQ31 PGUM 230500
TAFPQ
TAF
PGUM 230524Z 2306/2412 08011G19KT P6SM FEW022 FEW030
     FM230900 07007KT P6SM VCSH FEW020=



000
FTPQ31 PGUM 222300
TAFPQ
TAF
PGUM 222322Z 2300/2406 08011G18KT P6SM FEW022
     FM230900 07007KT P6SM VCSH FEW020=



000
FTPQ31 PGUM 222300
TAFPQ
TAF
PGUM 222322Z 2300/2406 08011G18KT P6SM FEW022
     FM230900 07007KT P6SM VCSH FEW020=



000
FTPQ31 PGUM 221700
TAFPQ
TAF
PGUM 221720Z 2218/2324 07007KT P6SM VCSH FEW020
     FM222300 08011G17KT P6SM SCT025
     FM230900 07007KT P6SM VCSH FEW020=



000
FTPQ31 PGUM 221700
TAFPQ
TAF
PGUM 221720Z 2218/2324 07007KT P6SM VCSH FEW020
     FM222300 08011G17KT P6SM SCT025
     FM230900 07007KT P6SM VCSH FEW020=



000
FTPQ31 PGUM 221100
TAFPQ
TAF
PGUM 221120Z 2212/2318 08007KT P6SM VCSH FEW020
     FM222300 08011G17KT P6SM SCT025
     FM230900 07007KT P6SM VCSH FEW020=



000
FTPQ31 PGUM 221100
TAFPQ
TAF
PGUM 221120Z 2212/2318 08007KT P6SM VCSH FEW020
     FM222300 08011G17KT P6SM SCT025
     FM230900 07007KT P6SM VCSH FEW020=



000
FTPQ31 PGUM 220500
TAFPQ
TAF
PGUM 220531Z 2206/2312 10011G17KT P6SM SCT025
     FM220900 09005KT P6SM VCSH FEW020=



000
FTPQ31 PGUM 220500
TAFPQ
TAF
PGUM 220531Z 2206/2312 10011G17KT P6SM SCT025
     FM220900 09005KT P6SM VCSH FEW020=



000
FTPQ31 PGUM 212300
TAFPQ
TAF
PGUM 212327Z 2200/2306 11011G17KT P6SM FEW023
     FM220900 09005KT P6SM FEW020=



000
FTPQ31 PGUM 212300
TAFPQ
TAF
PGUM 212327Z 2200/2306 11011G17KT P6SM FEW023
     FM220900 09005KT P6SM FEW020=



000
FTPQ31 PGUM 211700
TAFPQ
TAF
PGUM 211727Z 2118/2224 10009KT P6SM VCSH FEW020
     FM212300 11011G17KT P6SM FEW025 SCT050
     FM220900 09005KT P6SM FEW020=



    US Dept of Commerce
    National Oceanic and Atmospheric Administration
    National Weather Service
    1325 East West Highway
    Silver Spring, MD 20910
    Page Author: NWS Internet Services Team
Disclaimer
Information Quality
Credits
Glossary
Privacy Policy
Freedom of Information Act (FOIA)
About Us
Career Opportunities